<?xml version="1.0" encoding="UTF-8"?>
<gpx version="1.1" creator="2bulu-scraper" xmlns="http://www.topografix.com/GPX/1/1">
  <metadata><name>自贡大安区</name><desc>source: 2bulu.com trackId=77935726; exported 2026-09-01T15:47:59.634Z</desc>
    <bounds minlat="29.3700183" minlon="104.7803499" maxlat="29.3765997" maxlon="104.7853175"/>
    <link href="https://www.2bulu.com/track/t-tvgeG9FptSXp%252FR2KBg5Tzw%253D%253D.htm"><text>2bulu 源页面</text></link>
  </metadata>
  <wpt lat="29.3709744" lon="104.7811825"><ele>303</ele><name>
        </name></wpt>
  <wpt lat="29.3710387" lon="104.7812558"><ele>295</ele><name>
        </name></wpt>
  <wpt lat="29.3711349" lon="104.7813147"><ele>293</ele><name>
        </name></wpt>
  <wpt lat="29.3714499" lon="104.7813572"><ele>295</ele><name>
        </name></wpt>
  <wpt lat="29.3714499" lon="104.7813572"><ele>295</ele><name>
        </name></wpt>
  <wpt lat="29.3715828" lon="104.7813917"><ele>294</ele><name>
        </name></wpt>
  <wpt lat="29.3716971" lon="104.7815141"><ele>295</ele><name>
        </name></wpt>
  <wpt lat="29.3716971" lon="104.7815141"><ele>295</ele><name>
        </name></wpt>
  <wpt lat="29.3729415" lon="104.781242"><ele>300</ele><name>
        </name></wpt>
  <wpt lat="29.3729415" lon="104.781242"><ele>300</ele><name>
        </name></wpt>
  <wpt lat="29.3738437" lon="104.7827771"><ele>292</ele><name>
        </name></wpt>
  <wpt lat="29.3739138" lon="104.7828511"><ele>292</ele><name>
        </name></wpt>
  <wpt lat="29.3739138" lon="104.7828511"><ele>292</ele><name>
        </name></wpt>
  <wpt lat="29.3742226" lon="104.7827614"><ele>297</ele><name>
        </name></wpt>
  <wpt lat="29.3744324" lon="104.7829705"><ele>309</ele><name>
        </name></wpt>
  <wpt lat="29.3744499" lon="104.7832991"><ele>304</ele><name>
        </name></wpt>
  <wpt lat="29.3746232" lon="104.7835477"><ele>299</ele><name>
        </name></wpt>
  <wpt lat="29.3746929" lon="104.7836211"><ele>300</ele><name>
        </name></wpt>
  <wpt lat="29.3748646" lon="104.7838671"><ele>305</ele><name>
        </name></wpt>
  <wpt lat="29.375177" lon="104.7843092"><ele>305</ele><name>
        </name></wpt>
  <wpt lat="29.3752661" lon="104.7844976"><ele>307</ele><name>
        </name></wpt>
  <wpt lat="29.3753253" lon="104.7845765"><ele>306</ele><name>
        </name></wpt>
  <wpt lat="29.3753975" lon="104.7846433"><ele>306</ele><name>
        </name></wpt>
  <wpt lat="29.3755537" lon="104.7847833"><ele>307</ele><name>
        </name></wpt>
  <wpt lat="29.3757237" lon="104.7849151"><ele>308</ele><name>
        </name></wpt>
  <wpt lat="29.3758117" lon="104.7849552"><ele>309</ele><name>
        </name></wpt>
  <wpt lat="29.3759927" lon="104.7850554"><ele>309</ele><name>
        </name></wpt>
  <wpt lat="29.3759927" lon="104.7850554"><ele>309</ele><name>
        </name></wpt>
  <wpt lat="29.3763365" lon="104.785228"><ele>310</ele><name>
        </name></wpt>
  <trk><name>自贡大安区</name>
      <trkseg>
        <trkpt lat="29.3700183" lon="104.780835"><ele>300.2</ele><time>2026-01-16T23:48:16.000Z</time></trkpt>
        <trkpt lat="29.3701" lon="104.7808917"><ele>300.2</ele><time>2026-01-16T23:48:33.000Z</time></trkpt>
        <trkpt lat="29.3701788" lon="104.7809765"><ele>307.77</ele><time>2026-01-16T23:48:39.000Z</time></trkpt>
        <trkpt lat="29.3702739" lon="104.7810368"><ele>312</ele><time>2026-01-16T23:48:49.000Z</time></trkpt>
        <trkpt lat="29.3703803" lon="104.7810657"><ele>314.24</ele><time>2026-01-16T23:48:57.000Z</time></trkpt>
        <trkpt lat="29.3704866" lon="104.7810887"><ele>314.39</ele><time>2026-01-16T23:49:05.000Z</time></trkpt>
        <trkpt lat="29.3705869" lon="104.7811101"><ele>313.15</ele><time>2026-01-16T23:49:13.000Z</time></trkpt>
        <trkpt lat="29.3706894" lon="104.7811212"><ele>310.42</ele><time>2026-01-16T23:49:21.000Z</time></trkpt>
        <trkpt lat="29.3707814" lon="104.7811368"><ele>306.71</ele><time>2026-01-16T23:49:31.000Z</time></trkpt>
        <trkpt lat="29.3708834" lon="104.7811425"><ele>304.43</ele><time>2026-01-16T23:49:41.000Z</time></trkpt>
        <trkpt lat="29.3709744" lon="104.7811825"><ele>303.51</ele><time>2026-01-16T23:49:47.000Z</time></trkpt>
        <trkpt lat="29.3710387" lon="104.7812558"><ele>303.29</ele><time>2026-01-16T23:50:05.000Z</time></trkpt>
        <trkpt lat="29.3711349" lon="104.7813147"><ele>299.85</ele><time>2026-01-16T23:50:19.000Z</time></trkpt>
        <trkpt lat="29.3712307" lon="104.7813532"><ele>296.91</ele><time>2026-01-16T23:50:29.000Z</time></trkpt>
        <trkpt lat="29.3713432" lon="104.781371"><ele>296.47</ele><time>2026-01-16T23:50:39.000Z</time></trkpt>
        <trkpt lat="29.3714499" lon="104.7813572"><ele>296.74</ele><time>2026-01-16T23:50:47.000Z</time></trkpt>
        <trkpt lat="29.3715121" lon="104.7814146"><ele>295.95</ele><time>2026-01-16T23:51:09.000Z</time></trkpt>
        <trkpt lat="29.3715828" lon="104.7813917"><ele>295.46</ele><time>2026-01-16T23:51:17.000Z</time></trkpt>
        <trkpt lat="29.3716539" lon="104.7814297"><ele>294.74</ele><time>2026-01-16T23:51:35.000Z</time></trkpt>
        <trkpt lat="29.3716971" lon="104.7815141"><ele>296.1</ele><time>2026-01-16T23:51:43.000Z</time></trkpt>
        <trkpt lat="29.3716616" lon="104.7814799"><ele>295.58</ele><time>2026-01-16T23:52:19.000Z</time></trkpt>
        <trkpt lat="29.3715602" lon="104.7814501"><ele>290.95</ele><time>2026-01-16T23:52:29.000Z</time></trkpt>
        <trkpt lat="29.3714413" lon="104.7814029"><ele>289.12</ele><time>2026-01-16T23:52:41.000Z</time></trkpt>
        <trkpt lat="29.3713386" lon="104.7813416"><ele>288.42</ele><time>2026-01-16T23:52:51.000Z</time></trkpt>
        <trkpt lat="29.3712361" lon="104.7812959"><ele>287.85</ele><time>2026-01-16T23:52:59.000Z</time></trkpt>
        <trkpt lat="29.3711339" lon="104.7812379"><ele>286.8</ele><time>2026-01-16T23:53:07.000Z</time></trkpt>
        <trkpt lat="29.3710301" lon="104.7812144"><ele>287.83</ele><time>2026-01-16T23:53:19.000Z</time></trkpt>
        <trkpt lat="29.3709298" lon="104.7812079"><ele>289.8</ele><time>2026-01-16T23:53:29.000Z</time></trkpt>
        <trkpt lat="29.370841" lon="104.7811724"><ele>292.55</ele><time>2026-01-16T23:53:39.000Z</time></trkpt>
        <trkpt lat="29.3707402" lon="104.7811484"><ele>298.34</ele><time>2026-01-16T23:53:51.000Z</time></trkpt>
        <trkpt lat="29.3706419" lon="104.7810979"><ele>304.86</ele><time>2026-01-16T23:53:59.000Z</time></trkpt>
        <trkpt lat="29.3705497" lon="104.7810813"><ele>308.27</ele><time>2026-01-16T23:54:07.000Z</time></trkpt>
        <trkpt lat="29.3704411" lon="104.7810859"><ele>309.4</ele><time>2026-01-16T23:54:13.000Z</time></trkpt>
        <trkpt lat="29.3703549" lon="104.781027"><ele>308.8</ele><time>2026-01-16T23:54:21.000Z</time></trkpt>
        <trkpt lat="29.3702714" lon="104.7809681"><ele>304.67</ele><time>2026-01-16T23:54:31.000Z</time></trkpt>
        <trkpt lat="29.3701718" lon="104.7809594"><ele>298.88</ele><time>2026-01-16T23:54:39.000Z</time></trkpt>
        <trkpt lat="29.3700869" lon="104.7809227"><ele>293.98</ele><time>2026-01-16T23:54:49.000Z</time></trkpt>
        <trkpt lat="29.3701395" lon="104.7808726"><ele>292.01</ele><time>2026-01-16T23:55:03.000Z</time></trkpt>
        <trkpt lat="29.3702218" lon="104.7808017"><ele>290.29</ele><time>2026-01-16T23:55:11.000Z</time></trkpt>
        <trkpt lat="29.3702746" lon="104.7807004"><ele>288.23</ele><time>2026-01-16T23:55:21.000Z</time></trkpt>
        <trkpt lat="29.3703171" lon="104.7805871"><ele>286.58</ele><time>2026-01-16T23:55:27.000Z</time></trkpt>
        <trkpt lat="29.3703456" lon="104.780467"><ele>287.41</ele><time>2026-01-16T23:55:39.000Z</time></trkpt>
        <trkpt lat="29.3703952" lon="104.7803677"><ele>289.86</ele><time>2026-01-16T23:55:53.000Z</time></trkpt>
        <trkpt lat="29.3704831" lon="104.7803539"><ele>293.14</ele><time>2026-01-16T23:56:05.000Z</time></trkpt>
        <trkpt lat="29.3705804" lon="104.7803558"><ele>295.53</ele><time>2026-01-16T23:56:13.000Z</time></trkpt>
        <trkpt lat="29.3706762" lon="104.7803499"><ele>296.72</ele><time>2026-01-16T23:56:19.000Z</time></trkpt>
        <trkpt lat="29.3707721" lon="104.7803551"><ele>296.93</ele><time>2026-01-16T23:56:29.000Z</time></trkpt>
        <trkpt lat="29.3708733" lon="104.7803881"><ele>295.2</ele><time>2026-01-16T23:56:39.000Z</time></trkpt>
        <trkpt lat="29.3709773" lon="104.78045"><ele>293.91</ele><time>2026-01-16T23:56:47.000Z</time></trkpt>
        <trkpt lat="29.3710818" lon="104.7805025"><ele>292.48</ele><time>2026-01-16T23:56:57.000Z</time></trkpt>
        <trkpt lat="29.3711872" lon="104.7805252"><ele>290.38</ele><time>2026-01-16T23:57:07.000Z</time></trkpt>
        <trkpt lat="29.3712927" lon="104.7805221"><ele>290.05</ele><time>2026-01-16T23:57:17.000Z</time></trkpt>
        <trkpt lat="29.3713918" lon="104.7805384"><ele>291.02</ele><time>2026-01-16T23:57:27.000Z</time></trkpt>
        <trkpt lat="29.3714997" lon="104.7805574"><ele>291.74</ele><time>2026-01-16T23:57:39.000Z</time></trkpt>
        <trkpt lat="29.3715923" lon="104.7806076"><ele>293.7</ele><time>2026-01-16T23:57:49.000Z</time></trkpt>
        <trkpt lat="29.3716891" lon="104.7806489"><ele>294.13</ele><time>2026-01-16T23:57:57.000Z</time></trkpt>
        <trkpt lat="29.3717793" lon="104.7806752"><ele>293.82</ele><time>2026-01-16T23:58:07.000Z</time></trkpt>
        <trkpt lat="29.3718684" lon="104.7807093"><ele>294.33</ele><time>2026-01-16T23:58:15.000Z</time></trkpt>
        <trkpt lat="29.3719551" lon="104.7807405"><ele>294.53</ele><time>2026-01-16T23:58:23.000Z</time></trkpt>
        <trkpt lat="29.3720499" lon="104.7807682"><ele>294.78</ele><time>2026-01-16T23:58:33.000Z</time></trkpt>
        <trkpt lat="29.3721492" lon="104.7807883"><ele>294.79</ele><time>2026-01-16T23:58:43.000Z</time></trkpt>
        <trkpt lat="29.3722474" lon="104.7807946"><ele>294.36</ele><time>2026-01-16T23:58:55.000Z</time></trkpt>
        <trkpt lat="29.3723523" lon="104.7808278"><ele>295.28</ele><time>2026-01-16T23:59:05.000Z</time></trkpt>
        <trkpt lat="29.3724495" lon="104.7808706"><ele>295.89</ele><time>2026-01-16T23:59:15.000Z</time></trkpt>
        <trkpt lat="29.3725458" lon="104.7809096"><ele>296.58</ele><time>2026-01-16T23:59:23.000Z</time></trkpt>
        <trkpt lat="29.3726309" lon="104.7809551"><ele>297.15</ele><time>2026-01-16T23:59:31.000Z</time></trkpt>
        <trkpt lat="29.3727294" lon="104.7810164"><ele>298.16</ele><time>2026-01-16T23:59:41.000Z</time></trkpt>
        <trkpt lat="29.3728111" lon="104.7810867"><ele>299.47</ele><time>2026-01-16T23:59:49.000Z</time></trkpt>
        <trkpt lat="29.3728812" lon="104.7811578"><ele>300.08</ele><time>2026-01-16T23:59:57.000Z</time></trkpt>
        <trkpt lat="29.3729415" lon="104.781242"><ele>300.13</ele><time>2026-01-17T00:00:07.000Z</time></trkpt>
        <trkpt lat="29.3729993" lon="104.781329"><ele>300.16</ele><time>2026-01-17T00:00:29.000Z</time></trkpt>
        <trkpt lat="29.373061" lon="104.7814273"><ele>297.9</ele><time>2026-01-17T00:00:39.000Z</time></trkpt>
        <trkpt lat="29.3731311" lon="104.7815165"><ele>295.06</ele><time>2026-01-17T00:00:49.000Z</time></trkpt>
        <trkpt lat="29.3731881" lon="104.7816239"><ele>293.87</ele><time>2026-01-17T00:00:59.000Z</time></trkpt>
        <trkpt lat="29.37324" lon="104.7817241"><ele>294.49</ele><time>2026-01-17T00:01:09.000Z</time></trkpt>
        <trkpt lat="29.3732906" lon="104.781822"><ele>295.44</ele><time>2026-01-17T00:01:19.000Z</time></trkpt>
        <trkpt lat="29.3733512" lon="104.7819188"><ele>297.01</ele><time>2026-01-17T00:01:29.000Z</time></trkpt>
        <trkpt lat="29.3734184" lon="104.7820179"><ele>298.08</ele><time>2026-01-17T00:01:39.000Z</time></trkpt>
        <trkpt lat="29.373475" lon="104.782109"><ele>299.12</ele><time>2026-01-17T00:01:49.000Z</time></trkpt>
        <trkpt lat="29.3735324" lon="104.7821935"><ele>299.59</ele><time>2026-01-17T00:01:59.000Z</time></trkpt>
        <trkpt lat="29.3735163" lon="104.7822834"><ele>299.89</ele><time>2026-01-17T00:02:21.000Z</time></trkpt>
        <trkpt lat="29.3735249" lon="104.7823871"><ele>299.08</ele><time>2026-01-17T00:02:29.000Z</time></trkpt>
        <trkpt lat="29.3735667" lon="104.7824846"><ele>299.48</ele><time>2026-01-17T00:02:37.000Z</time></trkpt>
        <trkpt lat="29.37362" lon="104.7825804"><ele>299.66</ele><time>2026-01-17T00:02:47.000Z</time></trkpt>
        <trkpt lat="29.3736776" lon="104.7826667"><ele>297.74</ele><time>2026-01-17T00:02:55.000Z</time></trkpt>
        <trkpt lat="29.3737465" lon="104.782737"><ele>295.4</ele><time>2026-01-17T00:03:11.000Z</time></trkpt>
        <trkpt lat="29.3738437" lon="104.7827771"><ele>293.08</ele><time>2026-01-17T00:03:21.000Z</time></trkpt>
        <trkpt lat="29.3739138" lon="104.7828511"><ele>292.4</ele><time>2026-01-17T00:03:37.000Z</time></trkpt>
        <trkpt lat="29.3739893" lon="104.782812"><ele>292.06</ele><time>2026-01-17T00:04:29.000Z</time></trkpt>
        <trkpt lat="29.3740659" lon="104.7827297"><ele>292.76</ele><time>2026-01-17T00:04:37.000Z</time></trkpt>
        <trkpt lat="29.3741541" lon="104.7827064"><ele>294.07</ele><time>2026-01-17T00:04:47.000Z</time></trkpt>
        <trkpt lat="29.3742226" lon="104.7827614"><ele>295.24</ele><time>2026-01-17T00:04:55.000Z</time></trkpt>
        <trkpt lat="29.374307" lon="104.7828046"><ele>295.78</ele><time>2026-01-17T00:05:17.000Z</time></trkpt>
        <trkpt lat="29.3743754" lon="104.7828816"><ele>297.08</ele><time>2026-01-17T00:05:53.000Z</time></trkpt>
        <trkpt lat="29.3744324" lon="104.7829705"><ele>301.05</ele><time>2026-01-17T00:06:03.000Z</time></trkpt>
        <trkpt lat="29.374427" lon="104.7830811"><ele>304.3</ele><time>2026-01-17T00:06:17.000Z</time></trkpt>
        <trkpt lat="29.3744374" lon="104.7831923"><ele>304.99</ele><time>2026-01-17T00:06:29.000Z</time></trkpt>
        <trkpt lat="29.3744499" lon="104.7832991"><ele>305.29</ele><time>2026-01-17T00:06:41.000Z</time></trkpt>
        <trkpt lat="29.3745032" lon="104.7833791"><ele>304.87</ele><time>2026-01-17T00:06:55.000Z</time></trkpt>
        <trkpt lat="29.3745619" lon="104.7834628"><ele>303.2</ele><time>2026-01-17T00:07:05.000Z</time></trkpt>
        <trkpt lat="29.3746232" lon="104.7835477"><ele>301.74</ele><time>2026-01-17T00:07:15.000Z</time></trkpt>
        <trkpt lat="29.3746929" lon="104.7836211"><ele>300.52</ele><time>2026-01-17T00:07:27.000Z</time></trkpt>
        <trkpt lat="29.3747497" lon="104.7837041"><ele>300.12</ele><time>2026-01-17T00:07:41.000Z</time></trkpt>
        <trkpt lat="29.3748059" lon="104.7837864"><ele>299.64</ele><time>2026-01-17T00:07:51.000Z</time></trkpt>
        <trkpt lat="29.3748646" lon="104.7838671"><ele>300.83</ele><time>2026-01-17T00:08:01.000Z</time></trkpt>
        <trkpt lat="29.3749357" lon="104.7839333"><ele>302.49</ele><time>2026-01-17T00:08:11.000Z</time></trkpt>
        <trkpt lat="29.3750088" lon="104.7839994"><ele>302.88</ele><time>2026-01-17T00:08:21.000Z</time></trkpt>
        <trkpt lat="29.3750705" lon="104.7840912"><ele>303.28</ele><time>2026-01-17T00:08:33.000Z</time></trkpt>
        <trkpt lat="29.3751202" lon="104.7842055"><ele>304.62</ele><time>2026-01-17T00:08:41.000Z</time></trkpt>
        <trkpt lat="29.375177" lon="104.7843092"><ele>305.47</ele><time>2026-01-17T00:08:51.000Z</time></trkpt>
        <trkpt lat="29.3752123" lon="104.7844135"><ele>305.31</ele><time>2026-01-17T00:09:05.000Z</time></trkpt>
        <trkpt lat="29.3752661" lon="104.7844976"><ele>305.52</ele><time>2026-01-17T00:09:19.000Z</time></trkpt>
        <trkpt lat="29.3753253" lon="104.7845765"><ele>306.16</ele><time>2026-01-17T00:09:35.000Z</time></trkpt>
        <trkpt lat="29.3753975" lon="104.7846433"><ele>306.05</ele><time>2026-01-17T00:09:51.000Z</time></trkpt>
        <trkpt lat="29.3754751" lon="104.7847139"><ele>305.9</ele><time>2026-01-17T00:10:09.000Z</time></trkpt>
        <trkpt lat="29.3755537" lon="104.7847833"><ele>306.2</ele><time>2026-01-17T00:10:19.000Z</time></trkpt>
        <trkpt lat="29.3756332" lon="104.7848576"><ele>306.59</ele><time>2026-01-17T00:10:33.000Z</time></trkpt>
        <trkpt lat="29.3757237" lon="104.7849151"><ele>307.11</ele><time>2026-01-17T00:10:43.000Z</time></trkpt>
        <trkpt lat="29.3758117" lon="104.7849552"><ele>307.41</ele><time>2026-01-17T00:10:59.000Z</time></trkpt>
        <trkpt lat="29.3758993" lon="104.7850047"><ele>308.05</ele><time>2026-01-17T00:11:15.000Z</time></trkpt>
        <trkpt lat="29.3759927" lon="104.7850554"><ele>307.98</ele><time>2026-01-17T00:11:25.000Z</time></trkpt>
        <trkpt lat="29.3760844" lon="104.7850778"><ele>308.42</ele><time>2026-01-17T00:11:45.000Z</time></trkpt>
        <trkpt lat="29.3761687" lon="104.7851227"><ele>309.06</ele><time>2026-01-17T00:11:55.000Z</time></trkpt>
        <trkpt lat="29.3762579" lon="104.7851684"><ele>308</ele><time>2026-01-17T00:12:07.000Z</time></trkpt>
        <trkpt lat="29.3763365" lon="104.785228"><ele>308.22</ele><time>2026-01-17T00:12:19.000Z</time></trkpt>
        <trkpt lat="29.3764238" lon="104.7852409"><ele>309.07</ele><time>2026-01-17T00:12:35.000Z</time></trkpt>
        <trkpt lat="29.3765086" lon="104.785276"><ele>308.14</ele><time>2026-01-17T00:12:45.000Z</time></trkpt>
        <trkpt lat="29.3765997" lon="104.7853175"><ele>306.92</ele><time>2026-01-17T00:12:55.000Z</time></trkpt>
        <trkpt lat="29.3765997" lon="104.7853175"><ele>306.92</ele><time>2026-01-17T00:13:04.000Z</time></trkpt>
      </trkseg>
  </trk>
</gpx>